createdAt,value
2019-03-19T00:01:49.595Z,67.39
2019-03-19T00:04:20.807Z,67.62
2019-03-19T00:06:51.966Z,67.70
2019-03-19T00:09:23.155Z,67.71
2019-03-19T00:11:54.508Z,68.24
2019-03-19T00:14:25.923Z,68.75
2019-03-19T00:16:57.192Z,68.66
2019-03-19T00:19:28.453Z,68.80
2019-03-19T00:21:59.755Z,69.62
2019-03-19T00:24:31.071Z,70.00
2019-03-19T00:27:02.526Z,70.27
2019-03-19T00:29:33.757Z,70.21
2019-03-19T00:32:05.119Z,70.92
2019-03-19T00:34:36.982Z,70.64
2019-03-19T00:37:08.736Z,71.22
2019-03-19T00:39:40.391Z,71.13
2019-03-19T00:42:12.603Z,70.84
2019-03-19T00:44:43.911Z,71.55
2019-03-19T00:47:15.773Z,71.92
2019-03-19T00:49:47.531Z,72.27
2019-03-19T00:52:19.191Z,72.83
2019-03-19T00:54:50.971Z,72.40
2019-03-19T00:57:22.208Z,72.72
2019-03-19T00:59:53.360Z,73.45
2019-03-19T01:02:24.621Z,73.13
2019-03-19T01:04:55.889Z,73.27
2019-03-19T01:07:27.273Z,73.34
2019-03-19T01:09:59.914Z,73.31
2019-03-19T01:12:31.508Z,74.04
2019-03-19T01:15:03.263Z,74.21
2019-03-19T01:17:35.444Z,74.13
2019-03-19T01:20:09.854Z,74.16
2019-03-19T01:22:41.816Z,74.18
2019-03-19T01:25:13.676Z,73.93
2019-03-19T01:27:45.641Z,74.51
2019-03-19T01:30:17.924Z,74.83
2019-03-19T01:32:49.457Z,74.56
2019-03-19T01:35:21.118Z,75.35
2019-03-19T01:37:52.689Z,75.77
2019-03-19T01:40:24.381Z,75.83
2019-03-19T01:42:56.359Z,75.96
2019-03-19T01:45:28.044Z,76.17
2019-03-19T01:47:59.703Z,76.23
2019-03-19T01:50:31.460Z,76.46
2019-03-19T01:53:03.325Z,75.94
2019-03-19T01:55:34.876Z,76.51
2019-03-19T01:58:06.536Z,76.50
2019-03-19T02:00:38.212Z,76.61
2019-03-19T02:03:09.947Z,77.05
2019-03-19T02:05:41.559Z,76.53
2019-03-19T02:08:13.260Z,76.50
2019-03-19T02:10:44.914Z,76.69
2019-03-19T02:13:16.669Z,77.78
2019-03-19T02:15:48.440Z,77.01
2019-03-19T02:18:19.779Z,77.21
2019-03-19T02:20:50.960Z,77.54
2019-03-19T02:23:22.194Z,77.57
2019-03-19T02:25:53.479Z,77.70
2019-03-19T02:28:24.885Z,77.62
2019-03-19T02:30:56.207Z,78.27
2019-03-19T02:33:27.533Z,78.47
2019-03-19T02:35:58.914Z,78.33
2019-03-19T02:38:30.239Z,77.50
2019-03-19T02:41:01.648Z,77.77
2019-03-19T02:43:33.084Z,78.57
2019-03-19T02:46:04.497Z,78.65
2019-03-19T02:48:36.164Z,79.06
2019-03-19T02:51:08.093Z,79.05
2019-03-19T02:53:40.393Z,79.09
2019-03-19T02:56:11.950Z,79.27
2019-03-19T02:58:43.609Z,79.06
2019-03-19T03:01:14.937Z,79.28
2019-03-19T03:03:46.609Z,78.94
2019-03-19T03:06:18.005Z,79.56
2019-03-19T03:08:49.709Z,79.96
2019-03-19T03:11:21.169Z,79.64
2019-03-19T03:13:52.574Z,79.81
2019-03-19T03:16:23.911Z,79.68
2019-03-19T03:18:55.429Z,79.42
2019-03-19T03:21:26.754Z,79.57
2019-03-19T03:23:58.538Z,80.09
2019-03-19T03:26:30.239Z,80.10
2019-03-19T03:29:01.479Z,79.97
2019-03-19T03:31:32.694Z,80.15
2019-03-19T03:34:04.031Z,79.93
2019-03-19T03:36:35.270Z,79.78
2019-03-19T03:39:07.818Z,80.22
2019-03-19T03:41:39.192Z,80.38
2019-03-19T03:44:11.202Z,80.08
2019-03-19T03:46:42.508Z,80.42
2019-03-19T03:49:14.048Z,80.29
2019-03-19T03:51:45.758Z,80.31
2019-03-19T03:54:16.941Z,80.57
2019-03-19T03:57:01.411Z,80.61
2019-03-19T03:59:21.395Z,80.54
2019-03-19T04:01:52.987Z,80.61
2019-03-19T04:04:24.346Z,80.33
2019-03-19T04:06:55.582Z,80.72
2019-03-19T04:09:26.752Z,79.98
2019-03-19T04:11:58.018Z,79.24
2019-03-19T04:14:29.812Z,79.00
2019-03-19T04:17:01.175Z,78.18
2019-03-19T04:19:32.902Z,78.56
2019-03-19T04:22:04.774Z,77.69
2019-03-19T04:24:36.312Z,77.15
2019-03-19T04:27:15.972Z,75.62
2019-03-19T04:29:41.051Z,76.03
2019-03-19T04:32:12.352Z,74.90
2019-03-19T04:34:44.073Z,75.34
2019-03-19T04:37:15.935Z,76.21
2019-03-19T04:39:47.256Z,76.74
2019-03-19T04:42:18.610Z,77.00
2019-03-19T04:44:50.118Z,75.96
2019-03-19T04:47:21.420Z,76.28
2019-03-19T04:49:53.108Z,76.44
2019-03-19T04:52:24.385Z,75.19
2019-03-19T04:54:55.717Z,77.41
2019-03-19T04:57:27.363Z,76.61
2019-03-19T04:59:59.130Z,77.38
2019-03-19T05:02:30.791Z,77.85
2019-03-19T05:05:02.904Z,77.19
2019-03-19T05:07:34.510Z,77.06
2019-03-19T05:10:15.644Z,76.99
2019-03-19T05:12:47.193Z,77.84
2019-03-19T05:15:18.835Z,77.52
2019-03-19T05:17:50.140Z,76.78
2019-03-19T05:20:21.378Z,76.89
2019-03-19T05:22:52.632Z,75.21
2019-03-19T05:25:23.952Z,76.24
2019-03-19T05:27:55.385Z,76.07
2019-03-19T05:30:26.729Z,73.75
2019-03-19T05:32:58.072Z,73.37
2019-03-19T05:35:29.749Z,72.42
2019-03-19T05:38:01.458Z,73.69
2019-03-19T05:40:33.277Z,71.81
2019-03-19T05:43:04.605Z,68.98
2019-03-19T05:45:36.111Z,68.48
2019-03-19T05:48:07.395Z,68.29
2019-03-19T05:50:38.642Z,69.85
2019-03-19T05:53:09.937Z,69.61
2019-03-19T05:55:41.099Z,68.07
2019-03-19T05:58:12.421Z,66.13
2019-03-19T06:00:43.791Z,64.03
2019-03-19T06:03:15.084Z,62.69
2019-03-19T06:05:46.414Z,61.61
2019-03-19T06:08:17.664Z,60.16
2019-03-19T06:10:49.681Z,56.88
2019-03-19T06:13:21.331Z,57.13
2019-03-19T06:15:52.596Z,58.28
2019-03-19T06:18:34.277Z,54.10
2019-03-19T06:20:56.982Z,56.50
2019-03-19T06:23:28.237Z,54.25
2019-03-19T06:25:59.499Z,55.22
2019-03-19T06:28:30.967Z,55.01
2019-03-19T06:31:02.215Z,55.35
2019-03-19T06:33:33.476Z,56.32
2019-03-19T06:36:04.747Z,52.83
2019-03-19T06:38:36.098Z,54.77
2019-03-19T06:41:07.462Z,55.03
2019-03-19T06:43:39.421Z,53.10
2019-03-19T06:46:11.824Z,53.70
2019-03-19T06:48:43.259Z,48.65
2019-03-19T06:51:14.568Z,46.12
2019-03-19T06:53:45.845Z,51.83
2019-03-19T06:56:17.611Z,50.12
2019-03-19T06:58:48.939Z,50.49
2019-03-19T07:01:20.268Z,49.60
2019-03-19T07:03:52.900Z,52.02
2019-03-19T07:06:24.982Z,53.96
2019-03-19T07:08:57.281Z,50.40
2019-03-19T07:11:28.702Z,50.38
2019-03-19T07:14:00.054Z,54.57
2019-03-19T07:16:31.386Z,52.76
2019-03-19T07:19:02.706Z,53.13
2019-03-19T07:21:34.049Z,54.49
2019-03-19T07:24:05.453Z,55.95
2019-03-19T07:26:36.787Z,55.44
2019-03-19T07:29:08.151Z,56.81
2019-03-19T07:31:39.469Z,54.19
2019-03-19T07:34:10.905Z,53.07
2019-03-19T07:36:42.222Z,49.99
2019-03-19T07:39:13.597Z,48.31
2019-03-19T07:41:44.936Z,50.16
2019-03-19T07:44:16.344Z,51.20
2019-03-19T07:46:47.792Z,50.56
2019-03-19T07:49:19.198Z,51.70
2019-03-19T07:51:53.404Z,50.93
2019-03-19T07:54:24.717Z,50.75
2019-03-19T07:56:56.124Z,47.51
2019-03-19T07:59:27.526Z,46.58
2019-03-19T08:01:58.797Z,47.10
2019-03-19T08:04:31.632Z,45.35
2019-03-19T08:07:02.931Z,44.62
2019-03-19T08:09:34.237Z,42.54
2019-03-19T08:12:05.454Z,40.38
2019-03-19T08:14:36.603Z,41.88
2019-03-19T08:17:07.971Z,41.91
2019-03-19T08:19:39.364Z,43.07
2019-03-19T08:22:10.803Z,42.16
2019-03-19T08:24:44.187Z,40.90
2019-03-19T08:27:15.546Z,38.90
2019-03-19T08:29:46.928Z,39.64
2019-03-19T08:32:18.440Z,39.29
2019-03-19T08:34:49.840Z,41.99
2019-03-19T08:37:21.176Z,41.78
2019-03-19T08:39:52.505Z,41.15
2019-03-19T08:42:23.786Z,40.96
2019-03-19T08:44:55.473Z,43.03
2019-03-19T08:47:26.981Z,44.92
2019-03-19T08:49:58.407Z,45.07
2019-03-19T08:52:29.646Z,45.18
2019-03-19T08:55:00.915Z,44.21
2019-03-19T08:57:32.420Z,43.91
2019-03-19T09:00:16.416Z,43.57
2019-03-19T09:02:47.822Z,42.53
2019-03-19T09:05:19.172Z,40.45
2019-03-19T09:07:50.908Z,41.70
2019-03-19T09:10:22.218Z,41.73
2019-03-19T09:12:53.562Z,42.75
2019-03-19T09:15:26.917Z,42.64
2019-03-19T09:17:58.288Z,42.92
2019-03-19T09:20:29.558Z,42.10
2019-03-19T09:23:01.003Z,41.79
2019-03-19T09:25:32.300Z,38.14
2019-03-19T09:28:03.643Z,42.73
2019-03-19T09:30:35.008Z,41.51
2019-03-19T09:33:06.447Z,41.90
2019-03-19T09:35:37.729Z,40.04
2019-03-19T09:38:09.208Z,39.36
2019-03-19T09:40:40.431Z,38.17
2019-03-19T09:43:12.397Z,37.32
2019-03-19T09:45:43.773Z,37.04
2019-03-19T09:48:16.227Z,38.01
2019-03-19T09:50:47.596Z,34.94
2019-03-19T09:53:18.968Z,36.39
2019-03-19T09:55:50.291Z,37.29
2019-03-19T09:58:21.581Z,37.77
2019-03-19T10:00:53.150Z,37.47
2019-03-19T10:03:24.382Z,35.40
2019-03-19T10:05:55.588Z,37.36
2019-03-19T10:08:27.084Z,37.18
2019-03-19T10:10:58.320Z,35.79
2019-03-19T10:13:29.730Z,35.66
2019-03-19T10:16:00.992Z,35.62
2019-03-19T10:18:32.336Z,35.43
2019-03-19T10:21:03.648Z,38.72
2019-03-19T10:23:35.095Z,38.20
2019-03-19T10:26:06.345Z,38.49
2019-03-19T10:28:39.145Z,38.04
2019-03-19T10:31:09.680Z,36.55
2019-03-19T10:33:40.817Z,37.63
2019-03-19T10:36:12.451Z,38.05
2019-03-19T10:38:43.748Z,36.81
2019-03-19T10:41:14.973Z,35.85
2019-03-19T10:43:46.287Z,37.93
2019-03-19T10:46:17.639Z,35.40
2019-03-19T10:48:48.925Z,34.79
2019-03-19T10:51:20.149Z,35.85
2019-03-19T10:53:51.522Z,37.18
2019-03-19T10:56:22.811Z,35.85
2019-03-19T10:58:55.265Z,35.64
2019-03-19T11:01:26.632Z,37.45
2019-03-19T11:03:58.117Z,36.41
2019-03-19T11:06:29.264Z,35.86
2019-03-19T11:09:00.507Z,36.14
2019-03-19T11:11:32.582Z,35.91
2019-03-19T11:14:03.810Z,36.03
2019-03-19T11:16:35.050Z,37.39
2019-03-19T11:19:06.433Z,34.04
2019-03-19T11:21:37.669Z,35.12
2019-03-19T11:24:09.163Z,37.70
2019-03-19T11:26:41.822Z,35.46
2019-03-19T11:29:13.103Z,35.50
2019-03-19T11:31:44.276Z,34.81
2019-03-19T11:34:15.387Z,35.77
2019-03-19T11:36:57.246Z,34.72
2019-03-19T11:39:20.110Z,36.71
2019-03-19T11:41:51.460Z,36.03
2019-03-19T11:44:22.826Z,36.76
2019-03-19T11:46:54.068Z,36.41
2019-03-19T11:49:25.298Z,36.10
2019-03-19T11:51:56.623Z,36.40
2019-03-19T11:54:28.074Z,34.57
2019-03-19T11:56:59.430Z,36.29
2019-03-19T11:59:30.631Z,37.16
2019-03-19T12:02:02.060Z,36.41
2019-03-19T12:04:33.445Z,34.57
2019-03-19T12:07:05.353Z,36.88
2019-03-19T12:09:36.622Z,35.95
2019-03-19T12:12:07.944Z,38.09
2019-03-19T12:14:39.524Z,38.24
2019-03-19T12:17:10.743Z,37.22
2019-03-19T12:19:42.064Z,38.00
2019-03-19T12:22:13.351Z,38.20
2019-03-19T12:24:44.853Z,37.73
2019-03-19T12:27:19.475Z,36.36
2019-03-19T12:29:50.746Z,37.09
2019-03-19T12:32:21.992Z,37.29
2019-03-19T12:34:53.382Z,37.15
2019-03-19T12:37:25.017Z,36.52
2019-03-19T12:39:56.217Z,36.67
2019-03-19T12:42:27.458Z,37.17
2019-03-19T12:44:58.718Z,37.63
2019-03-19T12:47:29.893Z,36.99
2019-03-19T12:50:00.984Z,36.42
2019-03-19T12:52:32.137Z,36.31
2019-03-19T12:55:03.308Z,36.62
2019-03-19T12:57:34.418Z,37.22
2019-03-19T13:00:11.430Z,37.26
2019-03-19T13:02:42.667Z,36.53
2019-03-19T13:05:14.092Z,36.88
2019-03-19T13:07:45.433Z,36.91
2019-03-19T13:10:20.886Z,36.52
2019-03-19T13:12:52.247Z,36.68
2019-03-19T13:15:23.946Z,36.77
2019-03-19T13:17:55.273Z,37.27
2019-03-19T13:20:26.543Z,37.68
2019-03-19T13:22:57.834Z,37.81
2019-03-19T13:25:29.248Z,37.55
2019-03-19T13:28:00.430Z,37.07
2019-03-19T13:30:44.172Z,37.64
2019-03-19T13:33:06.543Z,37.35
2019-03-19T13:35:37.876Z,37.57
2019-03-19T13:38:09.053Z,37.23
2019-03-19T13:40:40.402Z,37.75
2019-03-19T13:43:11.687Z,38.19
2019-03-19T13:45:43.022Z,37.94
2019-03-19T13:48:14.381Z,38.03
2019-03-19T13:50:45.599Z,38.52
2019-03-19T13:53:16.941Z,38.58
2019-03-19T13:55:48.044Z,38.57
2019-03-19T13:58:19.433Z,39.07
2019-03-19T14:00:55.602Z,39.18
2019-03-19T14:03:23.841Z,39.91
2019-03-19T14:05:55.349Z,39.62
2019-03-19T14:08:27.570Z,40.24
2019-03-19T14:10:58.768Z,40.07
2019-03-19T14:13:29.927Z,40.02
2019-03-19T14:16:01.099Z,40.13
2019-03-19T14:18:32.357Z,40.53
2019-03-19T14:21:03.663Z,40.98
2019-03-19T14:23:35.162Z,41.06
2019-03-19T14:26:06.521Z,41.27
2019-03-19T14:28:40.524Z,41.24
2019-03-19T14:31:12.924Z,41.63
2019-03-19T14:33:44.325Z,41.39
2019-03-19T14:36:15.700Z,41.80
2019-03-19T14:38:49.224Z,41.69
2019-03-19T14:41:20.378Z,41.93
2019-03-19T14:43:51.612Z,42.18
2019-03-19T14:46:22.893Z,41.59
2019-03-19T14:48:54.216Z,42.12
2019-03-19T14:51:25.483Z,41.05
2019-03-19T14:53:58.023Z,41.01
2019-03-19T14:56:29.378Z,41.15
2019-03-19T14:59:00.780Z,40.90
2019-03-19T15:01:32.126Z,40.65
2019-03-19T15:04:03.509Z,40.05
2019-03-19T15:06:35.185Z,40.48
2019-03-19T15:09:07.253Z,40.75
2019-03-19T15:11:38.655Z,40.78
2019-03-19T15:14:10.188Z,40.92
2019-03-19T15:16:41.555Z,40.72
2019-03-19T15:19:12.996Z,40.81
2019-03-19T15:21:44.748Z,41.01
2019-03-19T15:24:16.025Z,41.18
2019-03-19T15:26:47.292Z,41.56
2019-03-19T15:29:18.487Z,41.96
2019-03-19T15:31:49.877Z,41.98
2019-03-19T15:34:21.199Z,42.57
2019-03-19T15:36:52.592Z,42.89
2019-03-19T15:39:24.004Z,42.93
2019-03-19T15:41:55.340Z,43.20
2019-03-19T15:44:27.140Z,43.34
2019-03-19T15:46:58.364Z,43.73
2019-03-19T15:49:37.781Z,43.83
2019-03-19T15:52:03.796Z,44.10
2019-03-19T15:54:35.664Z,44.27
2019-03-19T15:57:08.448Z,44.01
2019-03-19T15:59:40.213Z,44.38
2019-03-19T16:02:11.762Z,44.57
2019-03-19T16:04:43.335Z,44.83
2019-03-19T16:07:14.630Z,44.80
2019-03-19T16:09:46.288Z,44.41
2019-03-19T16:12:18.858Z,44.55
2019-03-19T16:14:50.367Z,44.84
2019-03-19T16:17:21.771Z,44.79
2019-03-19T16:19:53.198Z,44.85
2019-03-19T16:22:24.772Z,44.61
2019-03-19T16:24:56.190Z,44.76
2019-03-19T16:27:30.403Z,44.90
2019-03-19T16:30:01.772Z,45.04
2019-03-19T16:32:33.225Z,45.24
2019-03-19T16:35:06.297Z,45.15
2019-03-19T16:37:37.674Z,45.57
2019-03-19T16:40:17.209Z,45.46
2019-03-19T16:42:49.869Z,44.76
2019-03-19T16:45:21.208Z,44.82
2019-03-19T16:47:52.637Z,44.82
2019-03-19T16:50:24.506Z,44.65
2019-03-19T16:52:55.841Z,44.71
2019-03-19T16:55:27.223Z,45.02
2019-03-19T16:57:58.529Z,44.80
2019-03-19T17:00:31.041Z,43.95
2019-03-19T17:03:02.497Z,44.16
2019-03-19T17:05:34.327Z,44.32
2019-03-19T17:08:05.575Z,43.37
2019-03-19T17:10:36.877Z,43.98
2019-03-19T17:13:08.308Z,44.31
2019-03-19T17:15:39.614Z,44.26
2019-03-19T17:18:10.956Z,44.19
2019-03-19T17:20:42.258Z,44.33
2019-03-19T17:23:13.582Z,44.73
2019-03-19T17:25:44.933Z,44.75
2019-03-19T17:28:22.478Z,44.11
2019-03-19T17:30:49.304Z,44.73
2019-03-19T17:33:20.648Z,44.65
2019-03-19T17:35:52.153Z,44.74
2019-03-19T17:38:23.417Z,44.88
2019-03-19T17:40:55.806Z,44.82
2019-03-19T17:43:27.303Z,44.73
2019-03-19T17:45:58.647Z,45.04
2019-03-19T17:48:30.412Z,45.27
2019-03-19T17:51:02.065Z,45.45
2019-03-19T17:53:34.685Z,45.68
2019-03-19T17:56:06.508Z,45.84
2019-03-19T17:58:38.162Z,46.13
2019-03-19T18:01:17.282Z,46.20
2019-03-19T18:03:43.106Z,46.33
2019-03-19T18:06:14.968Z,46.55
2019-03-19T18:08:46.936Z,46.94
2019-03-19T18:11:18.589Z,47.04
2019-03-19T18:13:50.390Z,47.11
2019-03-19T18:16:21.945Z,47.36
2019-03-19T18:18:53.660Z,47.47
2019-03-19T18:21:25.435Z,47.66
2019-03-19T18:23:57.382Z,47.61
2019-03-19T18:26:29.136Z,47.67
2019-03-19T18:29:00.900Z,47.58
2019-03-19T18:31:33.575Z,47.71
2019-03-19T18:34:10.199Z,47.72
2019-03-19T18:36:38.393Z,47.84
2019-03-19T18:39:09.981Z,47.99
2019-03-19T18:41:41.866Z,48.29
2019-03-19T18:44:13.700Z,48.30
2019-03-19T18:46:45.968Z,48.50
2019-03-19T18:49:17.725Z,48.70
2019-03-19T18:51:49.380Z,48.92
2019-03-19T18:54:21.244Z,48.75
2019-03-19T18:56:52.852Z,49.30
2019-03-19T18:59:24.449Z,49.67
2019-03-19T19:01:56.430Z,50.04
2019-03-19T19:04:28.174Z,50.07
2019-03-19T19:07:00.551Z,50.21
2019-03-19T19:09:32.310Z,50.09
2019-03-19T19:12:03.938Z,50.24
2019-03-19T19:14:35.550Z,50.21
2019-03-19T19:17:07.065Z,50.46
2019-03-19T19:19:38.716Z,50.53
2019-03-19T19:22:10.593Z,50.73
2019-03-19T19:24:42.303Z,50.64
2019-03-19T19:27:13.890Z,50.95
2019-03-19T19:29:45.756Z,50.87
2019-03-19T19:32:17.404Z,51.23
2019-03-19T19:34:48.654Z,51.54
2019-03-19T19:37:19.964Z,51.77
2019-03-19T19:39:51.323Z,51.90
2019-03-19T19:42:23.671Z,52.37
2019-03-19T19:44:54.931Z,52.71
2019-03-19T19:47:26.175Z,52.70
2019-03-19T19:49:57.434Z,52.90
2019-03-19T19:52:28.792Z,52.77
2019-03-19T19:55:00.016Z,53.21
2019-03-19T19:57:31.358Z,53.01
2019-03-19T20:00:02.642Z,53.26
2019-03-19T20:02:35.201Z,53.58
2019-03-19T20:05:07.394Z,53.50
2019-03-19T20:07:38.968Z,53.24
2019-03-19T20:10:21.466Z,53.15
2019-03-19T20:12:52.959Z,52.85
2019-03-19T20:15:24.183Z,52.33
2019-03-19T20:17:55.501Z,52.65
2019-03-19T20:20:32.074Z,52.59
2019-03-19T20:23:03.835Z,52.54
2019-03-19T20:25:35.386Z,52.87
2019-03-19T20:28:07.150Z,52.78
2019-03-19T20:30:38.802Z,53.24
2019-03-19T20:33:10.664Z,53.23
2019-03-19T20:35:42.316Z,53.75
2019-03-19T20:38:14.030Z,53.74
2019-03-19T20:40:46.657Z,54.04
2019-03-19T20:43:19.319Z,54.02
2019-03-19T20:45:50.587Z,53.76
2019-03-19T20:48:21.903Z,53.85
2019-03-19T20:50:53.441Z,54.24
2019-03-19T20:53:24.810Z,54.37
2019-03-19T20:55:56.094Z,54.58
2019-03-19T20:58:27.474Z,54.98
2019-03-19T21:00:58.769Z,55.12
2019-03-19T21:03:35.838Z,55.78
2019-03-19T21:06:03.363Z,55.80
2019-03-19T21:08:34.656Z,55.26
2019-03-19T21:11:06.014Z,55.50
2019-03-19T21:13:37.379Z,55.92
2019-03-19T21:16:08.740Z,56.40
2019-03-19T21:18:40.045Z,56.70
2019-03-19T21:21:11.713Z,56.50
2019-03-19T21:23:42.981Z,56.60
2019-03-19T21:26:14.296Z,56.51
2019-03-19T21:28:45.633Z,56.81
2019-03-19T21:31:18.948Z,56.45
2019-03-19T21:33:51.579Z,56.56
2019-03-19T21:36:22.975Z,56.44
2019-03-19T21:38:54.559Z,56.78
2019-03-19T21:41:26.181Z,57.04
2019-03-19T21:43:57.966Z,57.47
2019-03-19T21:46:29.695Z,57.55
2019-03-19T21:49:01.764Z,58.07
2019-03-19T21:51:34.074Z,58.04
2019-03-19T21:54:05.791Z,58.30
2019-03-19T21:56:37.553Z,58.75
2019-03-19T21:59:09.251Z,58.62
2019-03-19T22:01:40.546Z,58.99
2019-03-19T22:04:12.634Z,58.82
2019-03-19T22:06:44.385Z,58.91
2019-03-19T22:09:16.237Z,58.85
2019-03-19T22:11:47.629Z,58.93
2019-03-19T22:14:18.932Z,59.36
2019-03-19T22:16:50.289Z,59.32
2019-03-19T22:19:21.947Z,59.72
2019-03-19T22:21:53.602Z,60.08
2019-03-19T22:24:25.254Z,60.36
2019-03-19T22:26:56.906Z,61.24
2019-03-19T22:29:28.771Z,62.73
2019-03-19T22:32:00.547Z,63.18
2019-03-19T22:34:32.079Z,64.22
2019-03-19T22:37:03.738Z,64.86
2019-03-19T22:39:37.740Z,64.87
2019-03-19T22:42:09.439Z,64.12
2019-03-19T22:44:41.069Z,63.52
2019-03-19T22:47:12.770Z,63.24
2019-03-19T22:49:44.576Z,62.88
2019-03-19T22:52:16.333Z,63.36
2019-03-19T22:54:48.091Z,63.35
2019-03-19T22:57:20.569Z,62.94
2019-03-19T22:59:52.946Z,62.89
2019-03-19T23:02:24.696Z,62.95
2019-03-19T23:04:56.366Z,62.80
2019-03-19T23:07:28.417Z,63.16
2019-03-19T23:09:59.972Z,63.63
2019-03-19T23:12:31.727Z,63.87
2019-03-19T23:15:03.792Z,64.36
2019-03-19T23:17:35.345Z,64.81
2019-03-19T23:20:10.173Z,64.37
2019-03-19T23:22:41.933Z,64.49
2019-03-19T23:25:13.692Z,64.59
2019-03-19T23:27:45.413Z,65.09
2019-03-19T23:30:18.745Z,65.15
2019-03-19T23:32:50.504Z,64.85
2019-03-19T23:35:22.263Z,64.95
2019-03-19T23:37:53.918Z,65.70
2019-03-19T23:40:25.566Z,65.55
2019-03-19T23:42:57.329Z,65.78
2019-03-19T23:45:28.984Z,65.85
2019-03-19T23:48:00.741Z,65.81
2019-03-19T23:50:32.502Z,66.15
2019-03-19T23:53:04.269Z,67.02
2019-03-19T23:55:35.711Z,67.06
2019-03-19T23:58:07.059Z,67.22
